Time;durP1;ratioP1;P1;durP2;ratioP2;P2;SDS_P1;SDS_P2;PMS_P1;PMS_P2;Temp;Humidity;BMP_temperature;BMP_pressure;BME280_temperature;BME280_humidity;BME280_pressure;Samples;Min_cycle;Max_cycle;Signal;HPM_P1;HPM_P2
2022/03/15 00:00:06;;;;;;;9.80;4.75;;;;;;;13.91;39.75;102447.22;5049110;28;20053;-80
2022/03/15 00:02:33;;;;;;;7.85;4.82;;;;;;;13.91;39.71;102435.41;5045873;28;20106;-80
2022/03/15 00:05:01;;;;;;;7.72;5.35;;;;;;;13.89;39.62;102435.50;5029841;28;20626;-79
2022/03/15 00:07:28;;;;;;;7.55;4.93;;;;;;;13.90;39.68;102430.91;5037076;28;20551;-79
2022/03/15 00:09:54;;;;;;;8.18;5.30;;;;;;;13.89;39.69;102429.16;5049477;28;20059;-80
2022/03/15 00:12:21;;;;;;;7.15;5.00;;;;;;;13.89;39.70;102429.16;5035589;28;20052;-80
2022/03/15 00:14:50;;;;;;;8.20;5.10;;;;;;;13.88;39.43;102431.00;5043754;28;20049;-80
2022/03/15 00:17:18;;;;;;;8.75;5.05;;;;;;;13.87;39.60;102437.44;5050171;28;20053;-80
2022/03/15 00:19:44;;;;;;;8.13;5.25;;;;;;;13.88;39.72;102441.03;5038571;28;20100;-80
2022/03/15 00:22:11;;;;;;;8.40;5.40;;;;;;;13.87;39.48;102429.22;5036947;28;20061;-80
2022/03/15 00:24:38;;;;;;;9.10;5.38;;;;;;;13.86;39.71;102446.56;5042565;28;20565;-80
2022/03/15 00:27:06;;;;;;;7.38;5.20;;;;;;;13.84;39.81;102434.84;5032867;28;20106;-80
2022/03/15 00:29:35;;;;;;;7.63;5.20;;;;;;;13.83;39.76;102433.13;5050294;28;20499;-80
2022/03/15 00:32:04;;;;;;;7.75;5.00;;;;;;;13.82;39.53;102442.28;5037308;28;20044;-81
2022/03/15 00:34:31;;;;;;;7.55;5.05;;;;;;;13.81;39.75;102431.44;5010521;28;20661;-80
2022/03/15 00:36:58;;;;;;;7.78;5.13;;;;;;;13.80;39.81;102433.28;5035422;28;20138;-80
2022/03/15 00:39:25;;;;;;;7.68;5.30;;;;;;;13.79;39.88;102420.59;5050049;28;20044;-81
2022/03/15 00:41:52;;;;;;;8.23;4.97;;;;;;;13.79;39.83;102425.16;5044865;28;20057;-80
2022/03/15 00:44:19;;;;;;;9.85;5.30;;;;;;;13.79;39.88;102420.59;5049751;28;20040;-81
2022/03/15 00:46:46;;;;;;;7.95;5.40;;;;;;;13.80;39.76;102416.00;5030940;28;20147;-80
2022/03/15 00:49:13;;;;;;;8.73;5.43;;;;;;;13.79;39.79;102419.69;5032643;28;20045;-80
2022/03/15 00:51:40;;;;;;;8.13;5.25;;;;;;;13.79;39.68;102425.16;5051502;28;20053;-80
2022/03/15 00:54:07;;;;;;;8.20;5.63;;;;;;;13.78;39.75;102420.66;5049314;28;20099;-81
2022/03/15 00:56:34;;;;;;;8.43;5.45;;;;;;;13.78;39.88;102426.13;5049710;28;20126;-80
2022/03/15 00:59:03;;;;;;;7.85;5.25;;;;;;;13.78;39.79;102426.13;5025057;28;20394;-80
2022/03/15 01:01:30;;;;;;;9.10;5.70;;;;;;;13.79;39.89;102428.78;5035061;28;20044;-80
2022/03/15 01:03:57;;;;;;;8.52;5.20;;;;;;;13.78;39.71;102424.28;5036061;28;20103;-80
2022/03/15 01:06:24;;;;;;;9.48;5.40;;;;;;;13.80;39.90;102433.28;5047037;28;20053;-80
2022/03/15 01:08:51;;;;;;;7.68;5.28;;;;;;;13.80;40.07;102425.09;5049598;28;20075;-81
2022/03/15 01:11:18;;;;;;;7.57;4.80;;;;;;;13.80;40.02;102426.94;5034813;28;20048;-80
2022/03/15 01:13:45;;;;;;;8.32;5.30;;;;;;;13.80;39.83;102426.94;5048875;28;20650;-81
2022/03/15 01:16:13;;;;;;;8.63;5.35;;;;;;;13.79;39.87;102428.78;5045918;28;20053;-80
2022/03/15 01:18:40;;;;;;;8.00;5.18;;;;;;;13.80;40.03;102421.47;5048848;28;20439;-80
2022/03/15 01:21:07;;;;;;;8.75;5.25;;;;;;;13.80;39.98;102421.47;5050387;28;20138;-80
2022/03/15 01:23:34;;;;;;;7.22;5.07;;;;;;;13.76;39.75;102422.59;5031703;28;20041;-80
2022/03/15 01:26:09;;;;;;;7.63;5.30;;;;;;;13.73;40.01;102418.22;5047844;28;20107;-80
2022/03/15 01:28:36;;;;;;;8.23;5.18;;;;;;;13.70;39.81;102415.63;5033164;28;20052;-80
2022/03/15 01:31:03;;;;;;;7.88;5.05;;;;;;;13.67;39.96;102416.69;5049860;28;20138;-80
2022/03/15 01:33:30;;;;;;;7.45;5.38;;;;;;;13.65;39.96;102420.47;5042491;28;20055;-80
2022/03/15 01:35:56;;;;;;;9.18;5.00;;;;;;;13.62;40.00;102415.16;5045111;28;20060;-80
2022/03/15 01:38:23;;;;;;;10.20;5.50;;;;;;;13.59;39.81;102409.88;5047711;28;20053;-80
2022/03/15 01:40:50;;;;;;;7.75;5.65;;;;;;;13.57;40.03;102409.09;5049675;28;20053;-80
2022/03/15 01:43:17;;;;;;;8.40;5.38;;;;;;;13.54;40.23;102409.25;5002674;28;20045;-81
2022/03/15 01:45:44;;;;;;;8.45;5.28;;;;;;;13.50;40.11;102408.56;5033402;28;20041;-81
2022/03/15 01:48:11;;;;;;;8.02;5.50;;;;;;;13.47;39.93;102402.38;5022729;28;20060;-80
2022/03/15 01:50:38;;;;;;;9.75;5.00;;;;;;;13.43;39.89;102398.03;5042886;28;20088;-80
2022/03/15 01:53:06;;;;;;;8.23;4.82;;;;;;;13.40;40.23;102392.75;5033082;28;20060;-80
2022/03/15 01:55:34;;;;;;;6.82;4.93;;;;;;;13.37;40.19;102396.53;5027976;28;20048;-80
2022/03/15 01:58:01;;;;;;;8.85;5.07;;;;;;;13.34;40.22;102400.28;5032196;28;20071;-80
2022/03/15 02:00:30;;;;;;;9.20;4.90;;;;;;;13.32;39.88;102398.63;5038734;28;20040;-80
2022/03/15 02:02:57;;;;;;;9.40;5.07;;;;;;;13.29;40.18;102396.06;5033110;28;20053;-80
2022/03/15 02:05:24;;;;;;;8.23;5.20;;;;;;;13.27;40.13;102389.78;5047319;28;20103;-81
2022/03/15 02:07:52;;;;;;;8.45;5.38;;;;;;;13.25;40.26;102394.47;5032701;28;20072;-80
2022/03/15 02:10:19;;;;;;;8.32;5.00;;;;;;;13.23;40.28;102397.28;5042692;28;20045;-80
2022/03/15 02:12:46;;;;;;;7.90;5.15;;;;;;;13.22;40.35;102391.91;5031647;28;20049;-80
2022/03/15 02:15:13;;;;;;;7.03;4.80;;;;;;;13.22;40.55;102400.09;5046077;28;20510;-81
2022/03/15 02:17:40;;;;;;;8.05;4.95;;;;;;;13.22;40.55;102398.25;5021081;28;20053;-80
2022/03/15 02:20:08;;;;;;;6.38;4.60;;;;;;;13.25;40.66;102389.91;5035713;28;20487;-80
2022/03/15 02:22:36;;;;;;;7.78;4.90;;;;;;;13.27;40.29;102385.22;5035530;28;20071;-80
2022/03/15 02:25:03;;;;;;;8.70;5.18;;;;;;;13.29;40.48;102386.03;5024105;28;20041;-80
2022/03/15 02:27:30;;;;;;;7.70;5.13;;;;;;;13.28;40.57;102384.25;5037818;28;20071;-80
2022/03/15 02:30:02;;;;;;;7.80;4.97;;;;;;;13.29;40.72;102383.31;5036979;28;20049;-80
2022/03/15 02:32:28;;;;;;;8.95;5.18;;;;;;;13.30;40.70;102386.91;5021053;28;20072;-80
2022/03/15 02:34:55;;;;;;;7.45;4.90;;;;;;;13.30;40.63;102381.47;5029351;28;20448;-80
2022/03/15 02:37:23;;;;;;;7.22;4.90;;;;;;;13.31;40.40;102366.84;5045927;28;20045;-81
2022/03/15 02:39:51;;;;;;;7.38;5.25;;;;;;;13.30;40.60;102376.00;5047048;28;20126;-80
2022/03/15 02:42:18;;;;;;;7.22;4.88;;;;;;;13.30;40.48;102371.44;5031198;28;20103;-80
2022/03/15 02:44:45;;;;;;;7.72;4.50;;;;;;;13.28;40.57;102364.28;5046694;28;20048;-80
2022/03/15 02:47:12;;;;;;;9.57;4.88;;;;;;;13.27;40.55;102362.50;5031209;28;20591;-80
2022/03/15 02:49:47;;;;;;;6.50;4.47;;;;;;;13.27;40.98;102362.50;5040701;28;20045;-80
2022/03/15 02:52:14;;;;;;;9.20;5.45;;;;;;;13.21;40.53;102358.28;5046048;28;20423;-80
2022/03/15 02:54:41;;;;;;;6.60;4.72;;;;;;;13.20;40.65;102344.72;5023770;28;20044;-80
2022/03/15 02:57:10;;;;;;;6.43;4.93;;;;;;;13.18;40.65;102335.75;5047209;28;20052;-80
2022/03/15 02:59:40;;;;;;;8.05;4.78;;;;;;;13.17;40.60;102342.19;5034440;28;20103;-81
2022/03/15 03:02:08;;;;;;;8.80;4.70;;;;;;;13.17;40.57;102336.72;5041768;28;20057;-80
2022/03/15 03:04:36;;;;;;;7.28;4.72;;;;;;;13.14;40.98;102335.03;5022222;28;20124;-80
2022/03/15 03:07:03;;;;;;;7.55;4.90;;;;;;;13.15;40.91;102333.19;5047199;28;20373;-80
2022/03/15 03:09:30;;;;;;;7.90;5.03;;;;;;;13.16;40.97;102344.03;4992909;28;20516;-80
2022/03/15 03:11:57;;;;;;;6.63;4.50;;;;;;;13.18;41.08;102335.75;5043591;28;20053;-80
2022/03/15 03:14:25;;;;;;;7.80;4.80;;;;;;;13.21;40.90;102335.59;5046919;28;20049;-81
2022/03/15 03:16:52;;;;;;;7.60;4.38;;;;;;;13.21;40.82;102336.47;5048032;28;20056;-80
2022/03/15 03:19:19;;;;;;;8.15;4.75;;;;;;;13.23;40.77;102329.09;5029626;28;20052;-80
2022/03/15 03:21:48;;;;;;;8.10;4.53;;;;;;;13.25;40.81;102327.16;5047680;28;20452;-80
2022/03/15 03:24:21;;;;;;;7.60;4.70;;;;;;;13.27;40.93;102332.50;5029467;28;20057;-81
2022/03/15 03:26:47;;;;;;;;;;;;;;;13.07;41.59;102328.13;5024889;28;20083;-80
2022/03/15 03:29:15;;;;;;;7.72;4.60;;;;;;;13.26;40.81;102318.00;5036425;28;19960;-80
2022/03/15 03:31:43;;;;;;;6.35;4.78;;;;;;;13.32;40.70;102320.41;5033231;28;20045;-80
2022/03/15 03:34:11;;;;;;;7.40;4.57;;;;;;;13.32;40.74;102323.13;5035243;28;20053;-80
2022/03/15 03:36:39;;;;;;;7.72;4.70;;;;;;;13.32;40.62;102322.25;5025580;28;20041;-79
2022/03/15 03:39:22;;;;;;;;;;;;;;;13.09;41.26;102320.75;5024446;28;20604;-80
2022/03/15 03:41:50;;;;;;;6.82;4.10;;;;;;;13.28;40.60;102320.63;5050813;28;19921;-79
2022/03/15 03:44:17;;;;;;;7.45;4.78;;;;;;;13.32;40.77;102319.53;5032232;28;20053;-79
2022/03/15 03:46:45;;;;;;;8.50;4.82;;;;;;;13.31;40.58;102318.63;5036048;28;20053;-80
2022/03/15 03:49:12;;;;;;;6.57;4.63;;;;;;;13.29;40.51;102311.50;5052574;28;20400;-80
2022/03/15 03:51:40;;;;;;;7.30;4.72;;;;;;;13.26;40.83;102314.38;5055356;28;20048;-80
2022/03/15 03:54:08;;;;;;;7.82;4.63;;;;;;;13.24;40.73;102313.59;5035900;28;20103;-80
2022/03/15 03:56:35;;;;;;;6.40;4.47;;;;;;;13.21;40.35;102311.03;5036804;28;20076;-80
2022/03/15 03:59:02;;;;;;;7.22;4.28;;;;;;;13.18;40.69;102322.09;5038746;28;20084;-80
2022/03/15 04:01:29;;;;;;;6.65;4.40;;;;;;;13.16;40.73;102313.16;5055121;28;20053;-80
2022/03/15 04:04:05;;;;;;;6.88;4.68;;;;;;;13.14;40.93;102309.63;5040331;28;20045;-80
2022/03/15 04:06:33;;;;;;;7.90;4.60;;;;;;;13.13;40.80;102306.00;5036439;28;20045;-80
2022/03/15 04:09:00;;;;;;;7.18;4.15;;;;;;;13.15;40.85;102314.09;5053209;28;20412;-80
2022/03/15 04:11:31;;;;;;;7.65;4.50;;;;;;;13.15;40.79;102319.56;5054757;28;20484;-80
2022/03/15 04:13:59;;;;;;;6.75;4.32;;;;;;;13.16;40.85;102319.50;5053218;28;20051;-80
2022/03/15 04:16:26;;;;;;;6.63;4.93;;;;;;;13.17;41.04;102329.44;5043938;28;20075;-80
2022/03/15 04:18:53;;;;;;;6.65;4.50;;;;;;;13.18;41.33;102327.56;5027114;28;20140;-80
2022/03/15 04:21:24;;;;;;;8.43;4.68;;;;;;;13.19;40.86;102324.75;5030339;28;20089;-80
2022/03/15 04:23:54;;;;;;;8.15;4.50;;;;;;;13.21;40.71;102322.81;5041975;28;20053;-80
2022/03/15 04:26:25;;;;;;;7.80;4.22;;;;;;;13.23;41.33;102312.72;5050465;28;20492;-80
2022/03/15 04:28:54;;;;;;;7.85;4.53;;;;;;;13.22;40.51;102315.53;5032877;28;20126;-80
2022/03/15 04:31:22;;;;;;;7.32;4.82;;;;;;;13.20;40.83;102318.34;5030360;28;20085;-80
2022/03/15 04:33:50;;;;;;;6.60;4.50;;;;;;;13.18;40.89;102322.09;5038413;28;20670;-80
2022/03/15 04:36:16;;;;;;;7.03;4.10;;;;;;;13.17;40.79;102317.63;5049408;28;20067;-80
2022/03/15 04:38:43;;;;;;;6.80;4.28;;;;;;;13.13;40.79;102314.19;5047312;28;20045;-80
2022/03/15 04:41:11;;;;;;;6.97;4.05;;;;;;;13.12;40.89;102306.03;5034333;28;20098;-80
2022/03/15 04:43:38;;;;;;;6.70;4.10;;;;;;;13.10;40.89;102295.22;5040430;28;20130;-80
2022/03/15 04:46:06;;;;;;;8.32;4.88;;;;;;;13.09;40.93;102295.34;5049750;28;20465;-80
2022/03/15 04:48:33;;;;;;;6.10;4.18;;;;;;;13.08;40.93;102299.91;5049654;28;20079;-80
2022/03/15 04:51:06;;;;;;;;;;;;;;;12.83;41.47;102294.00;5022914;28;20069;-80
2022/03/15 04:53:33;;;;;;;6.00;4.55;;;;;;;12.98;41.04;102297.75;5028408;28;19986;-80
2022/03/15 04:56:00;;;;;;;6.63;4.30;;;;;;;12.99;40.74;102296.78;5049818;28;20045;-80
2022/03/15 04:58:27;;;;;;;7.28;4.70;;;;;;;12.98;41.03;102304.06;5048925;28;20455;-80
2022/03/15 05:00:54;;;;;;;7.38;4.43;;;;;;;12.95;40.93;102293.31;5042476;28;20045;-80
2022/03/15 05:03:21;;;;;;;9.40;4.45;;;;;;;12.93;41.01;102293.41;5049634;28;20099;-80
2022/03/15 05:05:48;;;;;;;6.65;4.30;;;;;;;12.92;40.99;102282.63;5045564;28;20389;-79
2022/03/15 05:08:15;;;;;;;7.03;4.25;;;;;;;12.91;41.12;102284.44;5034652;28;20052;-80
2022/03/15 05:13:28;;;;;;;6.95;4.28;;;;;;;12.88;41.18;102275.53;5049882;28;20048;-80
2022/03/15 05:15:55;;;;;;;7.05;4.25;;;;;;;12.86;41.25;102270.16;5048745;28;20049;-79
2022/03/15 05:18:23;;;;;;;6.75;4.20;;;;;;;12.86;41.33;102266.56;5047346;28;20049;-80
2022/03/15 05:20:50;;;;;;;5.97;3.78;;;;;;;12.85;41.23;102267.53;5037007;28;20069;-79
2022/03/15 05:23:17;;;;;;;6.97;4.18;;;;;;;12.84;41.27;102261.22;5028885;28;20381;-80
2022/03/15 05:25:44;;;;;;;7.35;3.85;;;;;;;12.86;41.50;102275.63;5047026;28;20067;-79
2022/03/15 05:28:11;;;;;;;7.78;4.38;;;;;;;12.86;41.37;102262.00;5031734;28;20072;-79
2022/03/15 05:30:39;;;;;;;5.57;3.88;;;;;;;12.88;41.50;102267.38;5033182;28;20079;-79
2022/03/15 05:33:06;;;;;;;7.63;4.00;;;;;;;12.90;41.37;102270.91;5027075;28;20048;-79
2022/03/15 05:35:33;;;;;;;6.70;3.92;;;;;;;12.92;41.43;102263.53;5047618;28;20077;-79
2022/03/15 05:38:00;;;;;;;5.72;3.67;;;;;;;12.93;41.43;102259.81;5047780;28;20064;-79
2022/03/15 05:40:27;;;;;;;5.78;3.78;;;;;;;12.96;41.78;102262.38;5033887;28;20045;-80
2022/03/15 05:42:54;;;;;;;6.22;3.70;;;;;;;12.98;41.68;102263.19;5031453;28;20049;-79
2022/03/15 05:45:21;;;;;;;8.88;4.32;;;;;;;13.00;41.62;102263.09;5047111;28;20115;-79
2022/03/15 05:47:48;;;;;;;5.22;3.50;;;;;;;13.01;41.55;102253.97;5049687;28;20458;-79
2022/03/15 05:50:15;;;;;;;6.85;3.95;;;;;;;13.00;41.48;102258.53;5048541;28;20059;-79
2022/03/15 05:52:43;;;;;;;7.07;3.95;;;;;;;13.03;41.10;102257.47;5023203;28;20044;-80
2022/03/15 05:55:11;;;;;;;6.78;3.88;;;;;;;13.00;41.17;102261.25;5030226;28;20064;-79
2022/03/15 05:57:39;;;;;;;6.03;3.70;;;;;;;13.00;41.32;102254.94;5050139;28;20053;-79
2022/03/15 06:00:07;;;;;;;6.55;3.80;;;;;;;13.00;41.39;102255.81;5043803;28;20051;-79
2022/03/15 06:02:34;;;;;;;5.82;3.75;;;;;;;12.98;41.51;102255.00;5031425;28;20067;-79
2022/03/15 06:05:03;;;;;;;6.97;4.07;;;;;;;12.98;41.36;102252.28;5045842;28;20110;-80
2022/03/15 06:07:30;;;;;;;8.10;4.40;;;;;;;12.98;41.45;102248.66;5048662;28;20059;-79
2022/03/15 06:10:00;;;;;;;6.07;3.40;;;;;;;12.98;41.58;102248.66;5048063;28;20059;-78
2022/03/15 06:12:27;;;;;;;7.68;3.60;;;;;;;12.93;41.24;102255.25;5044702;28;20076;-78
2022/03/15 06:14:54;;;;;;;7.43;4.38;;;;;;;12.91;41.48;102242.69;5033460;28;20052;-79
2022/03/15 06:17:21;;;;;;;6.05;3.72;;;;;;;12.89;41.31;102244.59;5031530;28;20055;-79
2022/03/15 06:19:48;;;;;;;6.80;3.90;;;;;;;12.87;41.27;102241.94;5030491;28;20057;-80
2022/03/15 06:22:15;;;;;;;6.00;3.55;;;;;;;12.87;41.48;102241.06;5033436;28;20103;-79
2022/03/15 06:24:42;;;;;;;5.82;3.88;;;;;;;12.87;41.25;102247.41;5024313;28;20052;-79
2022/03/15 06:27:09;;;;;;;7.35;3.90;;;;;;;12.85;41.56;102238.41;5048831;28;20056;-80
2022/03/15 06:29:36;;;;;;;9.63;4.10;;;;;;;12.84;41.40;102236.69;5029703;28;20045;-80
2022/03/15 06:32:03;;;;;;;6.00;3.65;;;;;;;12.83;41.44;102237.66;5039767;28;20040;-82
2022/03/15 06:34:50;;;;;;;7.03;3.67;;;;;;;12.82;41.38;102238.59;5046606;28;20408;-80
2022/03/15 06:37:18;;;;;;;6.25;3.60;;;;;;;12.83;41.52;102234.91;5048645;28;20044;-80
2022/03/15 06:39:45;;;;;;;6.80;3.58;;;;;;;12.84;41.52;102233.09;5030533;28;20045;-79
2022/03/15 06:42:12;;;;;;;7.47;3.50;;;;;;;12.86;41.26;102228.41;5034092;28;20500;-79
2022/03/15 06:44:43;;;;;;;6.10;3.53;;;;;;;12.85;41.50;102232.09;5041731;28;20091;-79
2022/03/15 06:47:11;;;;;;;7.63;3.83;;;;;;;12.85;41.47;102234.81;5046318;28;20073;-81
2022/03/15 06:49:37;;;;;;;6.78;3.75;;;;;;;12.83;41.42;102232.19;5046479;28;20041;-81
2022/03/15 06:52:05;;;;;;;7.03;3.28;;;;;;;12.83;41.69;102232.19;5048954;28;20128;-80
2022/03/15 06:54:32;;;;;;;6.05;3.65;;;;;;;12.82;41.53;102230.44;5031516;28;20041;-80
2022/03/15 06:56:59;;;;;;;7.45;3.75;;;;;;;12.85;41.64;102227.53;5049426;28;20041;-79
2022/03/15 06:59:26;;;;;;;5.90;3.38;;;;;;;12.87;41.77;102222.88;5024879;28;20068;-79
2022/03/15 07:01:59;;;;;;;6.87;3.40;;;;;;;12.88;41.63;102221.03;5033071;28;20050;-80
2022/03/15 07:04:27;;;;;;;5.07;2.80;;;;;;;12.92;41.47;102220.78;5033017;28;20298;-80
2022/03/15 07:06:54;;;;;;;6.00;3.40;;;;;;;12.96;42.07;102221.50;5037286;28;20069;-82
2022/03/15 07:09:21;;;;;;;6.80;3.28;;;;;;;12.98;41.64;102222.28;5058073;28;20048;-80
2022/03/15 07:11:48;;;;;;;5.65;3.25;;;;;;;13.00;41.72;102216.75;5062955;28;20076;-80
2022/03/15 07:14:15;;;;;;;5.78;3.30;;;;;;;13.01;41.45;102223.97;5054401;28;20571;-80
2022/03/15 07:16:45;;;;;;;5.57;2.83;;;;;;;13.03;41.51;102219.28;5031531;28;20063;-81
2022/03/15 07:19:12;;;;;;;6.18;2.97;;;;;;;13.01;41.59;102211.22;5033110;28;20041;-80
2022/03/15 07:21:39;;;;;;;5.97;3.00;;;;;;;13.02;41.56;102218.41;5049874;28;20108;-78
2022/03/15 07:24:09;;;;;;;7.22;3.30;;;;;;;13.06;41.31;102213.69;5051153;28;20057;-79
2022/03/15 07:26:36;;;;;;;6.30;2.92;;;;;;;13.05;41.47;102218.25;5052397;28;20052;-79
2022/03/15 07:29:03;;;;;;;6.35;3.10;;;;;;;13.06;41.53;102213.69;5060412;28;20053;-78
2022/03/15 07:31:30;;;;;;;8.15;3.20;;;;;;;13.08;41.71;102206.31;5049647;28;20574;-79
2022/03/15 07:33:57;;;;;;;6.00;3.10;;;;;;;13.09;41.64;102206.22;5045957;28;20057;-79
2022/03/15 07:36:23;;;;;;;5.50;2.95;;;;;;;13.13;41.65;102206.91;5049541;28;20067;-80
2022/03/15 07:38:50;;;;;;;5.82;3.30;;;;;;;13.15;41.50;102202.31;5000935;28;20056;-80
2022/03/15 07:41:21;;;;;;;10.80;3.70;;;;;;;13.17;41.66;102197.66;5046582;28;20044;-80
2022/03/15 07:43:48;;;;;;;4.85;2.72;;;;;;;13.20;41.59;102201.06;5051323;28;20098;-81
2022/03/15 07:46:15;;;;;;;7.40;3.13;;;;;;;13.23;41.88;102190.00;5033995;28;20049;-80
2022/03/15 07:48:42;;;;;;;6.65;2.88;;;;;;;13.25;41.18;102187.19;5035027;28;20132;-81
2022/03/15 07:51:09;;;;;;;6.43;3.13;;;;;;;13.26;41.57;102187.06;5053711;28;20088;-82
2022/03/15 07:53:37;;;;;;;4.40;2.75;;;;;;;13.28;41.34;102178.81;5033737;28;20056;-81
2022/03/15 07:56:04;;;;;;;5.50;2.65;;;;;;;13.28;41.40;102176.97;5052485;28;20080;-81
2022/03/15 07:58:31;;;;;;;5.47;2.75;;;;;;;13.29;41.29;102164.22;5047288;28;20044;-81
2022/03/15 08:00:59;;;;;;;6.13;2.75;;;;;;;13.30;41.41;102163.25;5052456;28;20501;-81
2022/03/15 08:03:26;;;;;;;5.22;2.92;;;;;;;13.30;41.33;102163.25;5057053;28;20080;-81
2022/03/15 08:05:53;;;;;;;5.40;3.00;;;;;;;13.31;41.44;102171.34;5035409;28;20036;-83
2022/03/15 08:08:20;;;;;;;8.18;3.03;;;;;;;13.32;41.59;102159.47;5052882;28;20103;-82
2022/03/15 08:10:47;;;;;;;6.47;2.90;;;;;;;13.33;41.67;102163.97;5053370;28;20049;-81
2022/03/15 08:13:14;;;;;;;4.70;2.72;;;;;;;13.34;41.40;102165.69;5024692;28;20068;-81
2022/03/15 08:15:41;;;;;;;5.55;2.88;;;;;;;13.34;41.47;102165.69;5044588;28;20049;-81
2022/03/15 08:18:08;;;;;;;6.65;3.05;;;;;;;13.35;41.22;102163.84;5031277;28;20061;-81
2022/03/15 08:20:39;;;;;;;5.88;2.60;;;;;;;13.37;41.36;102161.03;5054202;28;20071;-82
2022/03/15 08:23:07;;;;;;;5.13;2.78;;;;;;;13.38;41.30;102160.94;5049826;28;20059;-82
2022/03/15 08:25:34;;;;;;;5.40;2.35;;;;;;;13.37;41.37;102164.66;5047058;28;20501;-82
2022/03/15 08:28:01;;;;;;;5.90;2.80;;;;;;;13.39;41.40;102159.09;5045178;28;20076;-81
2022/03/15 08:30:29;;;;;;;5.38;3.00;;;;;;;13.41;41.22;102158.06;5035239;28;20496;-81
2022/03/15 08:32:58;;;;;;;4.90;2.60;;;;;;;13.44;41.46;102159.72;5030471;28;20128;-83
2022/03/15 08:35:25;;;;;;;4.82;2.38;;;;;;;13.43;41.24;102147.91;5026862;28;20077;-82
2022/03/15 08:37:53;;;;;;;5.18;2.38;;;;;;;13.46;41.31;102147.75;5051682;28;20075;-84
2022/03/15 08:40:21;;;;;;;4.93;2.53;;;;;;;13.49;41.02;102154.88;5033402;28;20102;-85
2022/03/15 08:42:49;;;;;;;6.95;2.85;;;;;;;13.50;41.27;102143.00;5050667;28;20049;-84
2022/03/15 08:45:16;;;;;;;6.45;2.55;;;;;;;13.52;41.56;102151.97;5032612;28;20567;-83
2022/03/15 08:47:45;;;;;;;4.80;2.40;;;;;;;13.55;41.43;102143.59;5036609;28;20127;-84
2022/03/15 08:50:15;;;;;;;3.70;2.30;;;;;;;13.54;41.10;102140.00;5051273;28;20052;-84
2022/03/15 08:52:44;;;;;;;3.63;2.22;;;;;;;13.56;41.07;102139.91;5052323;28;20045;-87
2022/03/15 08:55:14;;;;;;;5.28;2.10;;;;;;;13.60;40.76;102133.28;5033042;28;20049;-86
2022/03/15 08:57:42;;;;;;;6.45;2.95;;;;;;;13.58;41.14;102137.97;5037679;28;20418;-85
2022/03/15 09:00:11;;;;;;;5.43;2.33;;;;;;;13.61;41.00;102145.97;5005973;28;20057;-86
2022/03/15 09:02:39;;;;;;;5.38;2.50;;;;;;;13.61;41.01;102143.22;5032427;28;20071;-88
2022/03/15 09:05:06;;;;;;;4.50;2.13;;;;;;;13.61;40.91;102143.22;5024399;28;20049;-87
2022/03/15 09:07:36;;;;;;;4.78;2.20;;;;;;;13.63;40.66;102144.91;5042277;28;20067;-88
2022/03/15 09:10:04;;;;;;;3.92;2.28;;;;;;;13.67;41.04;102143.75;5039546;28;20542;-87
2022/03/15 09:12:34;;;;;;;5.88;2.20;;;;;;;13.70;40.83;102135.38;5036222;28;20045;-87
2022/03/15 09:15:01;;;;;;;4.82;2.03;;;;;;;13.71;40.92;102128.06;5000372;28;20063;-87
2022/03/15 09:17:28;;;;;;;5.03;2.20;;;;;;;13.74;40.79;102144.28;5036355;28;20045;-87
2022/03/15 09:20:16;;;;;;;3.90;1.95;;;;;;;13.76;40.92;102130.53;5026612;28;20041;-87
2022/03/15 09:22:43;;;;;;;5.32;2.53;;;;;;;13.79;40.70;102122.16;5035447;28;20404;-88
2022/03/15 09:25:10;;;;;;;4.65;2.17;;;;;;;13.81;40.58;102120.22;5053347;28;20048;-86
2022/03/15 09:27:37;;;;;;;3.38;2.03;;;;;;;13.83;40.76;102116.44;5032878;28;20242;-86
2022/03/15 09:30:06;;;;;;;5.07;2.20;;;;;;;13.85;40.82;102114.47;5031931;28;20045;-85
2022/03/15 09:32:33;;;;;;;4.60;2.30;;;;;;;13.87;40.53;102107.06;5050912;28;20055;-85
2022/03/15 09:35:00;;;;;;;3.78;2.20;;;;;;;13.89;40.51;102110.59;5027318;28;20052;-84
2022/03/15 09:37:27;;;;;;;4.18;2.00;;;;;;;13.91;40.45;102107.78;5051347;28;20497;-85
2022/03/15 09:39:57;;;;;;;4.10;1.90;;;;;;;13.94;40.58;102104.84;4995916;28;20041;-85
2022/03/15 09:42:28;;;;;;;4.75;2.25;;;;;;;13.97;40.48;102104.66;5041322;28;20037;-85
2022/03/15 09:44:57;;;;;;;3.10;1.85;;;;;;;13.99;40.45;102100.00;5032550;28;20096;-86
2022/03/15 09:47:32;;;;;;;4.53;1.92;;;;;;;14.03;40.37;102098.81;5037004;28;20064;-86
2022/03/15 09:50:03;;;;;;;4.80;1.83;;;;;;;14.03;40.29;102099.69;5052807;28;20068;-86
2022/03/15 09:52:34;;;;;;;4.80;2.10;;;;;;;14.06;40.62;102099.53;5033595;28;20049;-88
2022/03/15 09:55:03;;;;;;;4.07;2.17;;;;;;;14.06;40.28;102093.19;5035263;28;20051;-86
2022/03/15 09:57:31;;;;;;;5.30;2.40;;;;;;;14.08;40.48;102092.09;5031170;28;20165;-85
2022/03/15 10:00:00;;;;;;;4.22;2.30;;;;;;;14.12;40.20;102100.09;5049899;28;20124;-84
2022/03/15 10:02:28;;;;;;;5.00;2.28;;;;;;;14.12;40.17;102091.91;5036500;28;20091;-87
2022/03/15 10:05:01;;;;;;;4.28;2.08;;;;;;;14.12;40.33;102090.06;5031439;28;20051;-86
2022/03/15 10:07:28;;;;;;;4.22;2.10;;;;;;;14.15;40.47;102086.28;5031477;28;20052;-86
2022/03/15 10:09:56;;;;;;;4.97;2.40;;;;;;;14.18;40.20;102089.69;5035257;28;20518;-85
2022/03/15 10:12:25;;;;;;;4.57;2.30;;;;;;;14.22;40.34;102093.09;5033169;28;20131;-87
2022/03/15 10:14:56;;;;;;;4.55;2.08;;;;;;;14.21;40.38;102089.50;5030227;28;20417;-87
2022/03/15 10:17:26;;;;;;;3.95;1.85;;;;;;;14.22;40.46;102093.09;5034015;28;20114;-86
2022/03/15 10:19:59;;;;;;;5.10;2.20;;;;;;;14.24;40.29;102082.97;5006273;28;20099;-84
2022/03/15 10:22:26;;;;;;;3.50;1.85;;;;;;;14.28;40.21;102089.97;5028865;28;20049;-86
2022/03/15 10:24:54;;;;;;;6.35;2.42;;;;;;;14.30;40.21;102079.84;5042741;28;20060;-86
2022/03/15 10:27:24;;;;;;;3.65;2.10;;;;;;;14.30;40.31;102083.47;5030668;28;20084;-86
2022/03/15 10:30:03;;;;;;;4.55;1.88;;;;;;;14.32;40.28;102075.16;5047102;28;20049;-86
2022/03/15 10:32:30;;;;;;;4.20;1.98;;;;;;;14.34;40.35;102075.94;5030716;28;20147;-85
2022/03/15 10:35:09;;;;;;;5.25;2.30;;;;;;;14.39;40.51;102074.72;5026534;28;20060;-85
2022/03/15 10:37:40;;;;;;;3.63;1.70;;;;;;;14.39;40.19;102074.72;5043002;28;20472;-87
2022/03/15 10:40:07;;;;;;;4.57;1.90;;;;;;;14.38;40.28;102067.50;5037936;28;20063;-86
2022/03/15 10:42:41;;;;;;;3.65;2.10;;;;;;;14.41;40.22;102075.47;5030537;28;20051;-85
2022/03/15 10:45:19;;;;;;;4.40;2.03;;;;;;;14.43;40.00;102078.13;5041536;28;20060;-85
2022/03/15 10:47:51;;;;;;;3.55;1.90;;;;;;;14.43;39.95;102070.81;5033494;28;20136;-86
2022/03/15 10:50:20;;;;;;;5.38;2.20;;;;;;;14.42;40.23;102074.50;5045576;28;20136;-84
2022/03/15 10:52:48;;;;;;;3.95;2.00;;;;;;;14.44;40.10;102064.38;5024010;28;20501;-84
2022/03/15 10:55:28;;;;;;;6.90;2.20;;;;;;;14.49;39.89;102058.63;5051562;28;20053;-84
2022/03/15 10:58:02;;;;;;;5.22;2.40;;;;;;;14.50;39.86;102060.34;5036443;28;20060;-85
2022/03/15 11:00:38;;;;;;;6.78;2.92;;;;;;;14.50;39.98;102068.53;5034642;28;20045;-85
2022/03/15 11:03:10;;;;;;;4.88;2.28;;;;;;;14.51;39.71;102056.66;5033895;28;20057;-84
2022/03/15 11:05:39;;;;;;;3.88;1.80;;;;;;;14.52;39.72;102057.53;5048217;28;20114;-86
2022/03/15 11:08:10;;;;;;;5.00;2.35;;;;;;;14.54;39.72;102050.13;5035568;28;20045;-84
2022/03/15 11:10:39;;;;;;;4.82;1.95;;;;;;;14.55;39.89;102060.94;5036668;28;20053;-85
2022/03/15 11:13:13;;;;;;;3.88;2.10;;;;;;;14.57;40.08;102055.41;5032000;28;20438;-82
2022/03/15 11:15:47;;;;;;;4.10;2.17;;;;;;;14.61;39.89;102054.19;5033678;28;20064;-87
2022/03/15 11:18:16;;;;;;;4.32;2.40;;;;;;;14.60;39.94;102046.97;5034690;28;20136;-85
2022/03/15 11:20:46;;;;;;;5.65;2.13;;;;;;;14.63;39.90;102044.06;5042116;28;20079;-86
2022/03/15 11:23:22;;;;;;;4.70;2.30;;;;;;;14.64;39.84;102035.75;5057437;28;20056;-87
2022/03/15 11:26:22;;;;;;;6.53;2.63;;;;;;;14.59;40.24;102043.38;5049285;28;20071;-87
2022/03/15 11:28:49;;;;;;;4.40;2.15;;;;;;;14.64;40.08;102041.22;5034392;28;20059;-87
2022/03/15 11:31:16;;;;;;;4.65;2.30;;;;;;;14.67;40.03;102042.88;5056386;28;20136;-88
2022/03/15 11:33:47;;;;;;;4.55;2.42;;;;;;;14.69;40.19;102039.06;5041194;28;20060;-88